Time;durP1;ratioP1;P1;durP2;ratioP2;P2;SDS_P1;SDS_P2;PMS_P1;PMS_P2;Temp;Humidity;BMP_temperature;BMP_pressure;BME280_temperature;BME280_humidity;BME280_pressure;Samples;Min_cycle;Max_cycle;Signal;HPM_P1;HPM_P2
2021/12/28 00:03:37;;;;;;;53.70;27.20;;;;;;;-1.89;66.11;98578.29;218846;1293;139056;-57
2021/12/28 00:08:41;;;;;;;53.40;29.00;;;;;;;-1.90;66.20;98570.48;218718;1293;140298;-57
2021/12/28 00:13:44;;;;;;;61.60;30.30;;;;;;;-1.90;66.25;98564.40;218901;1293;139707;-60
2021/12/28 00:18:48;;;;;;;61.20;30.50;;;;;;;-1.85;66.32;98565.70;219776;1293;139884;-58
2021/12/28 00:23:51;;;;;;;58.40;29.40;;;;;;;-1.78;66.29;98563.30;218634;1293;139564;-56
2021/12/28 00:28:54;;;;;;;59.80;30.20;;;;;;;-1.70;66.43;98565.39;219486;1293;140063;-57
2021/12/28 00:33:58;;;;;;;63.60;30.10;;;;;;;-1.64;66.44;98569.44;219162;1293;139685;-56
2021/12/28 00:39:02;;;;;;;57.10;29.10;;;;;;;-1.60;66.39;98573.54;219352;1293;141071;-58
2021/12/28 00:44:05;;;;;;;57.80;29.30;;;;;;;-1.58;66.36;98571.05;218862;1293;139128;-56
2021/12/28 00:49:08;;;;;;;57.40;29.20;;;;;;;-1.60;66.28;98560.30;219447;1293;139368;-58
2021/12/28 00:54:11;;;;;;;58.70;29.90;;;;;;;-1.59;66.31;98565.34;218859;1293;139554;-58
2021/12/28 00:59:14;;;;;;;56.50;29.70;;;;;;;-1.57;66.30;98562.33;219213;1293;139500;-62
2021/12/28 01:04:17;;;;;;;55.00;29.60;;;;;;;-1.58;66.21;98569.32;219734;1293;139274;-58
2021/12/28 01:09:20;;;;;;;55.80;27.50;;;;;;;-1.57;66.34;98572.61;218405;1295;139965;-58
2021/12/28 01:14:24;;;;;;;56.60;30.90;;;;;;;-1.60;66.32;98565.86;219423;1293;140394;-60
2021/12/28 01:19:28;;;;;;;52.40;27.80;;;;;;;-1.59;66.31;98569.16;219302;1293;139375;-56
2021/12/28 01:24:33;;;;;;;56.70;29.20;;;;;;;-1.61;66.33;98567.63;218548;1293;139344;-58
2021/12/28 01:29:36;;;;;;;49.60;27.10;;;;;;;-1.60;66.27;98564.14;219138;1293;140497;-57
2021/12/28 01:34:39;;;;;;;52.90;27.60;;;;;;;-1.58;66.44;98560.80;218789;1293;139602;-57
2021/12/28 01:39:43;;;;;;;54.00;26.30;;;;;;;-1.53;66.48;98552.85;218729;1294;140047;-57
2021/12/28 01:44:46;;;;;;;50.00;28.20;;;;;;;-1.45;66.45;98544.34;219215;1293;139777;-53
2021/12/28 01:49:49;;;;;;;52.80;27.80;;;;;;;-1.38;66.45;98542.43;219723;1293;139041;-58
2021/12/28 01:54:52;;;;;;;51.70;27.00;;;;;;;-1.39;66.31;98536.20;219053;1293;141747;-56
2021/12/28 01:59:55;;;;;;;47.60;25.60;;;;;;;-1.40;66.17;98531.17;219926;1293;139084;-56
2021/12/28 02:04:58;;;;;;;47.70;25.90;;;;;;;-1.44;66.16;98525.16;218916;1293;140977;-59
2021/12/28 02:10:04;;;;;;;49.00;25.90;;;;;;;-1.47;66.11;98526.10;218949;1293;139693;-61
2021/12/28 02:15:13;;;;;;;47.20;26.00;;;;;;;-1.41;66.39;98509.10;218916;1293;140229;-59
2021/12/28 02:20:18;;;;;;;47.40;26.40;;;;;;;-1.41;66.16;98512.42;219151;1293;139845;-57
2021/12/28 02:25:23;;;;;;;45.80;23.40;;;;;;;-1.48;66.21;98513.27;219054;1294;139116;-59
2021/12/28 02:30:26;;;;;;;44.30;24.70;;;;;;;-1.52;66.30;98518.92;218813;1293;139960;-59
2021/12/28 02:35:30;;;;;;;47.10;25.50;;;;;;;-1.51;66.46;98512.63;218944;1293;138942;-58
2021/12/28 02:40:34;;;;;;;45.20;23.60;;;;;;;-1.48;66.45;98510.11;219122;1293;140843;-57
2021/12/28 02:45:46;;;;;;;43.60;23.90;;;;;;;-1.50;66.34;98506.70;219095;1293;139404;-59
2021/12/28 02:51:03;;;;;;;46.10;23.90;;;;;;;-1.54;66.24;98506.27;218642;1293;139543;-57
2021/12/28 02:56:06;;;;;;;39.70;22.40;;;;;;;-1.52;66.38;98498.21;219651;1293;139668;-58
2021/12/28 03:01:22;;;;;;;44.70;24.60;;;;;;;-1.43;66.47;98487.56;219287;1293;139631;-58
2021/12/28 03:06:26;;;;;;;41.30;23.90;;;;;;;-1.30;66.55;98479.44;219861;1293;139032;-56
2021/12/28 03:11:29;;;;;;;42.70;23.10;;;;;;;-1.21;66.67;98472.63;219996;1293;139625;-57
2021/12/28 03:16:33;;;;;;;40.90;22.50;;;;;;;-1.23;66.22;98471.98;219077;1294;139790;-60
2021/12/28 03:21:38;;;;;;;45.90;24.00;;;;;;;-1.29;66.24;98477.16;218922;1294;138965;-60
2021/12/28 03:26:41;;;;;;;39.30;23.80;;;;;;;-1.36;66.15;98476.65;218672;1293;138982;-61
2021/12/28 03:31:44;;;;;;;42.50;22.40;;;;;;;-1.40;66.18;98470.13;219456;1293;140137;-59
2021/12/28 03:36:47;;;;;;;42.40;23.60;;;;;;;-1.41;66.37;98473.45;219124;1293;140105;-57
2021/12/28 03:41:50;;;;;;;39.40;22.00;;;;;;;-1.39;66.30;98470.46;218814;1293;139757;-59
2021/12/28 03:46:53;;;;;;;40.60;23.50;;;;;;;-1.42;66.18;98466.67;219026;1294;139404;-57
2021/12/28 03:51:57;;;;;;;41.70;22.40;;;;;;;-1.43;66.23;98460.27;218833;1292;139206;-57
2021/12/28 03:57:04;;;;;;;43.10;23.50;;;;;;;-1.46;66.10;98469.73;219003;1294;139421;-59
2021/12/28 04:02:07;;;;;;;40.20;22.90;;;;;;;-1.47;66.16;98470.97;219304;1293;140229;-59
2021/12/28 04:07:16;;;;;;;40.90;22.70;;;;;;;-1.49;66.32;98465.61;218804;1293;139542;-61
2021/12/28 04:12:21;;;;;;;41.60;23.20;;;;;;;-1.51;66.31;98459.59;219347;1293;139417;-58
2021/12/28 04:17:28;;;;;;;43.60;24.00;;;;;;;-1.47;66.36;98457.57;218196;1295;139924;-56
2021/12/28 04:22:31;;;;;;;77.50;42.30;;;;;;;-1.39;66.40;98465.58;219458;1291;140494;-58
2021/12/28 04:27:34;;;;;;;39.70;22.10;;;;;;;-1.26;66.67;98465.77;218942;1293;139191;-57
2021/12/28 04:32:38;;;;;;;41.90;22.80;;;;;;;-1.21;66.31;98470.54;219334;1293;139195;-56
2021/12/28 04:37:41;;;;;;;47.80;27.10;;;;;;;-1.11;66.70;98471.52;218830;1294;139314;-62
2021/12/28 04:42:45;;;;;;;42.30;22.50;;;;;;;-1.01;66.54;98461.52;218568;1294;139210;-57
2021/12/28 04:47:48;;;;;;;39.60;22.60;;;;;;;-1.10;66.04;98460.89;219007;1293;139488;-58
2021/12/28 04:52:53;;;;;;;36.80;20.20;;;;;;;-1.20;65.90;98451.36;219357;1291;139149;-60
2021/12/28 04:57:58;;;;;;;40.70;22.90;;;;;;;-1.30;65.83;98457.18;218513;1302;140763;-59
2021/12/28 05:03:03;;;;;;;212.40;119.90;;;;;;;-1.26;66.20;98457.77;219621;1294;139699;-58
2021/12/28 05:08:06;;;;;;;41.60;22.60;;;;;;;-1.16;66.36;98454.23;218948;1294;139273;-58
2021/12/28 05:13:10;;;;;;;33.80;20.00;;;;;;;-1.24;66.09;98458.59;219174;1293;139498;-60
2021/12/28 05:18:13;;;;;;;37.70;20.90;;;;;;;-1.35;65.79;98461.13;218659;1294;139330;-59
2021/12/28 05:23:16;;;;;;;38.20;21.30;;;;;;;-1.45;66.02;98464.83;219140;1293;139576;-58
2021/12/28 05:28:19;;;;;;;35.60;19.70;;;;;;;-1.50;65.85;98467.37;219068;1294;139530;-57
2021/12/28 05:33:22;;;;;;;35.20;19.40;;;;;;;-1.55;65.89;98474.11;219168;1293;139573;-58
2021/12/28 05:38:25;;;;;;;36.00;19.70;;;;;;;-1.48;66.17;98463.86;219974;1294;139255;-63
2021/12/28 05:43:28;;;;;;;33.60;19.80;;;;;;;-1.39;66.27;98461.91;218729;1294;139977;-58
2021/12/28 05:48:31;;;;;;;38.60;20.80;;;;;;;-1.39;65.95;98454.80;218446;1293;139086;-60
2021/12/28 05:53:35;;;;;;;33.90;18.70;;;;;;;-1.41;66.07;98453.98;218485;1294;139456;-61
2021/12/28 05:58:38;;;;;;;34.50;19.50;;;;;;;-1.44;66.00;98457.85;218756;1296;139217;-57
2021/12/28 06:03:41;;;;;;;35.30;20.10;;;;;;;-1.47;66.03;98462.61;220008;1291;139234;-60
2021/12/28 06:08:44;;;;;;;32.00;18.70;;;;;;;-1.41;66.17;98453.98;219731;1293;139223;-57
2021/12/28 06:13:47;;;;;;;34.70;19.10;;;;;;;-1.42;66.18;98452.26;218436;1294;138918;-59
2021/12/28 06:18:50;;;;;;;32.50;19.10;;;;;;;-1.46;65.97;98456.34;218693;1292;139475;-59
2021/12/28 06:23:53;;;;;;;34.30;19.10;;;;;;;-1.47;66.20;98454.27;218876;1293;139175;-55
2021/12/28 06:28:57;;;;;;;33.70;18.50;;;;;;;-1.49;66.22;98460.23;218947;1293;139758;-60
2021/12/28 06:34:02;;;;;;;35.10;18.30;;;;;;;-1.49;66.08;98461.64;217909;1297;139259;-60
2021/12/28 06:39:06;;;;;;;32.80;17.80;;;;;;;-1.51;66.30;98460.43;219047;1293;140300;-59
2021/12/28 06:44:10;;;;;;;35.90;18.70;;;;;;;-1.45;66.35;98460.99;220038;1290;140071;-63
2021/12/28 06:49:13;;;;;;;28.90;17.20;;;;;;;-1.44;66.22;98465.16;218683;1294;139848;-58
2021/12/28 06:54:17;;;;;;;30.70;17.80;;;;;;;-1.46;66.14;98464.86;219270;1294;139988;-58
2021/12/28 06:59:20;;;;;;;34.40;18.60;;;;;;;-1.42;66.31;98468.60;218562;1293;140195;-59
2021/12/28 07:04:23;;;;;;;33.00;18.20;;;;;;;-1.41;66.21;98464.40;219940;1293;140005;-60
2021/12/28 07:09:27;;;;;;;30.30;17.60;;;;;;;-1.35;66.22;98469.31;218929;1293;139517;-57
2021/12/28 07:14:30;;;;;;;33.90;18.20;;;;;;;-1.28;66.26;98466.19;219258;1293;139013;-55
2021/12/28 07:19:33;;;;;;;31.20;17.20;;;;;;;-1.30;66.12;98471.45;218841;1293;140123;-55
2021/12/28 07:24:36;;;;;;;30.10;16.90;;;;;;;-1.33;66.00;98472.55;219701;1293;139322;-59
2021/12/28 07:29:39;;;;;;;31.70;18.70;;;;;;;-1.34;66.14;98470.13;218524;1294;139430;-54
2021/12/28 07:34:42;;;;;;;30.40;17.30;;;;;;;-1.30;66.23;98474.41;214664;1293;5088295;-50
2021/12/28 07:39:50;;;;;;;30.10;17.60;;;;;;;-1.33;65.95;98478.11;219242;1293;138844;-57
2021/12/28 07:44:53;;;;;;;31.60;18.30;;;;;;;-1.36;66.04;98477.14;219464;1293;139139;-57
2021/12/28 07:49:56;;;;;;;29.80;17.20;;;;;;;-1.33;66.25;98474.46;218689;1293;139066;-60
2021/12/28 07:54:59;;;;;;;28.30;17.30;;;;;;;-1.32;66.07;98477.41;218361;1294;138835;-58
2021/12/28 08:00:07;;;;;;;28.80;17.60;;;;;;;-1.30;66.20;98473.37;218476;1294;140011;-57
2021/12/28 08:05:14;;;;;;;28.90;17.20;;;;;;;-1.23;66.35;98470.95;218736;1293;139286;-55
2021/12/28 08:10:18;;;;;;;32.40;18.60;;;;;;;-1.18;66.25;98475.53;218929;1293;140064;-58
2021/12/28 08:15:22;;;;;;;31.20;17.80;;;;;;;-1.13;66.16;98475.92;219667;1293;140270;-61
2021/12/28 08:20:25;;;;;;;29.60;17.10;;;;;;;-1.02;66.18;98467.98;218589;1294;140787;-59
2021/12/28 08:25:29;;;;;;;31.80;18.10;;;;;;;-0.90;66.32;98466.99;218827;1294;140133;-57
2021/12/28 08:30:36;;;;;;;32.80;18.60;;;;;;;-0.82;66.20;98472.02;219051;1293;139246;-59
2021/12/28 08:35:40;;;;;;;31.00;18.80;;;;;;;-0.78;66.00;98478.52;218966;1293;140336;-62
2021/12/28 08:40:44;;;;;;;28.50;16.90;;;;;;;-0.85;65.80;98469.11;218285;1296;139348;-59
2021/12/28 08:45:47;;;;;;;29.40;17.20;;;;;;;-0.93;65.50;98470.04;219628;1293;139813;-58
2021/12/28 08:50:50;;;;;;;33.20;18.10;;;;;;;-0.94;65.78;98463.27;218500;1293;138920;-59
2021/12/28 08:55:53;;;;;;;29.90;17.20;;;;;;;-0.88;66.00;98446.06;219337;1290;139204;-57
2021/12/28 09:00:57;;;;;;;30.90;18.20;;;;;;;-0.85;65.77;98433.59;220192;1290;138863;-58
2021/12/28 09:06:05;;;;;;;27.90;16.80;;;;;;;-0.96;65.64;98439.30;218191;1294;139886;-57
2021/12/28 09:11:08;;;;;;;27.10;16.50;;;;;;;-1.07;65.51;98441.83;218726;1294;139181;-61
2021/12/28 09:16:12;;;;;;;37.20;20.30;;;;;;;-1.11;65.85;98438.44;219216;1293;139665;-62
2021/12/28 09:21:15;;;;;;;31.00;18.10;;;;;;;-1.12;65.88;98428.38;218459;1293;138527;-62
2021/12/28 09:26:18;;;;;;;29.60;17.30;;;;;;;-1.15;65.80;98416.09;219000;1293;139874;-57
2021/12/28 09:31:21;;;;;;;30.20;17.40;;;;;;;-1.15;65.81;98409.15;218933;1293;139295;-57
2021/12/28 09:36:25;;;;;;;40.00;23.30;;;;;;;-1.06;66.29;98410.81;219334;1292;139781;-62
2021/12/28 09:41:28;;;;;;;33.60;17.80;;;;;;;-0.90;66.11;98417.36;219184;1293;141570;-63
2021/12/28 09:46:31;;;;;;;29.70;18.10;;;;;;;-0.77;65.93;98428.52;219006;1293;139988;-59
2021/12/28 09:51:34;;;;;;;35.10;19.70;;;;;;;-0.70;65.77;98421.02;219180;1292;139305;-58
2021/12/28 09:56:38;;;;;;;36.80;18.90;;;;;;;-0.64;65.82;98425.05;219422;1293;139940;-56
2021/12/28 10:01:42;;;;;;;29.80;18.10;;;;;;;-0.61;65.60;98425.50;219020;1293;138878;-59
2021/12/28 10:06:46;;;;;;;31.50;18.40;;;;;;;-0.65;65.42;98422.63;218840;1293;138933;-56
2021/12/28 10:11:53;;;;;;;32.20;19.20;;;;;;;-0.65;65.26;98426.31;219377;1290;139495;-63
2021/12/28 10:17:02;;;;;;;30.10;18.60;;;;;;;-0.62;65.44;98429.70;219296;1293;139792;-63
2021/12/28 10:22:31;;;;;;;34.70;19.70;;;;;;;-0.61;65.37;98422.87;218784;1293;139267;-63
2021/12/28 10:27:35;;;;;;;32.70;19.00;;;;;;;-0.60;65.42;98409.42;218729;1293;139285;-64
2021/12/28 10:32:40;;;;;;;38.10;20.00;;;;;;;-0.58;65.37;98388.47;219176;1293;139472;-59
2021/12/28 10:38:08;;;;;;;33.50;20.20;;;;;;;-0.56;65.24;98369.79;218649;1293;139106;-61
2021/12/28 10:43:20;;;;;;;37.30;21.00;;;;;;;-0.56;65.14;98353.41;219601;1293;139305;-58
2021/12/28 10:48:27;;;;;;;36.00;21.90;;;;;;;-0.53;65.21;98344.78;218361;1294;139293;-58
2021/12/28 10:53:40;;;;;;;39.30;22.60;;;;;;;-0.44;65.35;98338.43;219554;1292;139932;-60
2021/12/28 10:58:47;;;;;;;43.50;24.50;;;;;;;-0.37;65.27;98330.91;218442;1294;139916;-63
2021/12/28 11:03:57;;;;;;;42.70;25.40;;;;;;;-0.32;65.34;98336.50;218447;1293;139286;-58
2021/12/28 11:09:05;;;;;;;38.40;23.00;;;;;;;-0.31;65.17;98331.05;218386;1299;138878;-56
2021/12/28 11:14:15;;;;;;;41.40;23.60;;;;;;;-0.32;65.10;98323.09;218722;1293;139205;-55
2021/12/28 11:19:27;;;;;;;46.30;24.60;;;;;;;-0.26;65.12;98321.52;218648;1293;140381;-61
2021/12/28 11:24:33;;;;;;;44.40;24.10;;;;;;;-0.13;65.23;98320.40;218680;1294;139504;-57
2021/12/28 11:29:39;;;;;;;38.90;23.80;;;;;;;-0.03;65.10;98310.33;219112;1293;138744;-62
2021/12/28 11:34:42;;;;;;;48.90;26.50;;;;;;;0.08;65.21;98304.95;219442;1292;139180;-57
2021/12/28 11:39:59;;;;;;;50.40;27.60;;;;;;;0.17;65.12;98300.12;219336;1293;138857;-57
2021/12/28 11:45:03;;;;;;;55.60;29.70;;;;;;;0.22;64.99;98281.83;219787;1292;139010;-63
2021/12/28 11:50:09;;;;;;;50.90;29.90;;;;;;;0.26;65.00;98257.29;219369;1290;152266;-59
2021/12/28 11:55:12;;;;;;;48.20;28.20;;;;;;;0.27;64.89;98246.94;219385;1293;139496;-57
2021/12/28 12:00:17;;;;;;;51.30;28.30;;;;;;;0.27;64.69;98246.78;219093;1293;139220;-62
2021/12/28 12:05:29;;;;;;;44.10;26.00;;;;;;;0.26;64.61;98236.36;219156;1293;139035;-60
2021/12/28 12:10:35;;;;;;;47.80;27.20;;;;;;;0.26;64.82;98229.36;218901;1293;138891;-60
2021/12/28 12:15:43;;;;;;;48.50;25.30;;;;;;;0.31;64.85;98231.80;219016;1293;138941;-58
2021/12/28 12:20:52;;;;;;;43.10;24.90;;;;;;;0.35;64.68;98238.84;219255;1294;138996;-57
2021/12/28 12:26:04;;;;;;;45.40;25.50;;;;;;;0.37;64.78;98236.51;219017;1293;139751;-64
2021/12/28 12:31:18;;;;;;;43.10;24.50;;;;;;;0.39;64.66;98231.88;219105;1290;138731;-59
2021/12/28 12:36:41;;;;;;;42.40;23.50;;;;;;;0.42;64.56;98214.85;219648;1290;139455;-58
2021/12/28 12:41:48;;;;;;;43.30;24.60;;;;;;;0.43;64.47;98211.14;219159;1293;139009;-60
2021/12/28 12:46:54;;;;;;;42.30;23.80;;;;;;;0.48;64.51;98204.89;219070;1293;138518;-60
2021/12/28 12:52:22;;;;;;;41.10;23.10;;;;;;;0.50;64.38;98196.26;219291;1293;140150;-63
2021/12/28 12:57:30;;;;;;;40.40;22.70;;;;;;;0.52;64.38;98191.14;219469;1293;138575;-58
2021/12/28 13:02:36;;;;;;;36.20;21.90;;;;;;;0.52;64.48;98195.33;218510;1294;138795;-58
2021/12/28 13:07:39;;;;;;;179.60;108.30;;;;;;;0.52;64.44;98200.90;218897;1294;139059;-62
2021/12/28 13:12:45;;;;;;;41.90;24.30;;;;;;;0.62;65.00;98195.12;218644;1293;139407;-61
2021/12/28 13:17:49;;;;;;;38.20;22.00;;;;;;;0.68;64.73;98202.05;219095;1291;139281;-62
2021/12/28 13:23:01;;;;;;;39.30;22.10;;;;;;;0.64;64.19;98214.45;218318;1293;139016;-62
2021/12/28 13:28:06;;;;;;;45.60;24.70;;;;;;;0.60;64.19;98212.65;219307;1292;139501;-62
2021/12/28 13:33:12;;;;;;;56.30;31.30;;;;;;;0.64;64.85;98200.99;218778;1293;138699;-61
2021/12/28 13:38:17;;;;;;;35.00;19.90;;;;;;;0.77;64.62;98185.17;218918;1292;139215;-64
2021/12/28 13:43:23;;;;;;;;;;;;;;;0.78;64.30;98182.18;218618;1292;138988;-65
2021/12/28 13:48:29;;;;;;;34.00;19.40;;;;;;;0.76;64.21;98181.39;219205;1290;125259;-58
2021/12/28 13:53:41;;;;;;;36.50;20.70;;;;;;;0.69;64.14;98167.30;219508;1293;138640;-59
2021/12/28 13:58:47;;;;;;;33.80;20.10;;;;;;;0.65;64.19;98163.95;218964;1293;140465;-53
2021/12/28 14:03:57;;;;;;;75.40;40.30;;;;;;;0.64;64.41;98158.25;218422;1294;140011;-57
2021/12/28 14:09:04;;;;;;;37.00;21.50;;;;;;;0.70;64.51;98153.64;219529;1293;138825;-58
2021/12/28 14:14:17;;;;;;;39.90;21.70;;;;;;;0.67;64.25;98155.33;219607;1292;139904;-61
2021/12/28 14:19:23;;;;;;;36.20;20.60;;;;;;;0.60;64.23;98161.89;219099;1293;138753;-57
2021/12/28 14:24:31;;;;;;;;;;;;;;;0.52;64.17;98155.02;219120;1293;138799;-59
2021/12/28 14:29:34;;;;;;;36.60;21.60;;;;;;;0.45;64.27;98151.95;218885;1294;125039;-60
2021/12/28 14:34:40;;;;;;;39.20;22.60;;;;;;;0.42;64.45;98142.44;218558;1294;139188;-63
2021/12/28 14:39:44;;;;;;;38.90;22.90;;;;;;;0.38;64.40;98135.95;218404;1294;140667;-60
2021/12/28 14:44:57;;;;;;;40.40;22.10;;;;;;;0.35;64.46;98140.27;218472;1293;139638;-62
2021/12/28 14:50:18;;;;;;;37.50;21.90;;;;;;;0.29;64.55;98141.19;218468;1293;139100;-61
2021/12/28 14:55:34;;;;;;;40.50;22.30;;;;;;;0.23;64.67;98145.56;218900;1293;139057;-58
2021/12/28 15:00:47;;;;;;;170.60;100.30;;;;;;;0.25;65.26;98150.38;219056;1293;139686;-58
2021/12/28 15:05:57;;;;;;;46.60;25.80;;;;;;;0.33;65.28;98142.09;218601;1294;139099;-58
2021/12/28 15:11:01;;;;;;;43.30;24.70;;;;;;;0.29;64.99;98146.58;219544;1293;139663;-61
2021/12/28 15:16:04;;;;;;;44.00;24.80;;;;;;;0.23;64.93;98151.15;219340;1293;139337;-57
2021/12/28 15:21:07;;;;;;;46.20;25.50;;;;;;;0.14;64.79;98140.63;218891;1293;138787;-58
2021/12/28 15:26:10;;;;;;;45.20;24.20;;;;;;;0.13;64.88;98134.93;219106;1294;139561;-60
2021/12/28 15:31:13;;;;;;;43.40;24.80;;;;;;;0.15;64.95;98133.80;218717;1293;140417;-61
2021/12/28 15:36:16;;;;;;;40.70;25.00;;;;;;;0.16;65.10;98128.72;218551;1292;207760;-59
2021/12/28 15:41:19;;;;;;;361.50;212.00;;;;;;;0.19;65.41;98128.09;219633;1290;139350;-58
2021/12/28 15:46:24;;;;;;;47.20;26.50;;;;;;;0.31;65.57;98126.46;218683;1294;139554;-60
2021/12/28 15:51:27;;;;;;;43.20;24.60;;;;;;;0.27;65.10;98121.67;218740;1294;139978;-54
2021/12/28 15:56:31;;;;;;;41.00;23.80;;;;;;;0.18;64.87;98122.55;218398;1305;138896;-58
2021/12/28 16:01:36;;;;;;;45.50;24.90;;;;;;;0.08;64.89;98108.05;218954;1292;140156;-59
2021/12/28 16:06:40;;;;;;;41.20;22.90;;;;;;;0.03;65.06;98096.92;219165;1293;139530;-61
2021/12/28 16:11:43;;;;;;;43.00;22.50;;;;;;;-0.03;64.96;98087.52;219084;1292;139886;-61
2021/12/28 16:16:47;;;;;;;41.10;22.70;;;;;;;-0.11;64.82;98085.37;218971;1293;139499;-63
2021/12/28 16:21:50;;;;;;;44.80;24.30;;;;;;;-0.20;64.94;98086.88;218836;1293;139010;-62
2021/12/28 16:26:54;;;;;;;42.50;23.20;;;;;;;-0.25;64.98;98082.71;219012;1294;139421;-59
2021/12/28 16:31:57;;;;;;;45.20;24.90;;;;;;;-0.32;64.93;98073.52;218732;1293;140278;-61
2021/12/28 16:37:00;;;;;;;45.30;24.90;;;;;;;-0.35;64.99;98066.66;218949;1293;139954;-59
2021/12/28 16:42:04;;;;;;;44.20;23.90;;;;;;;-0.36;65.18;98054.48;219150;1293;140102;-57
2021/12/28 16:47:08;;;;;;;45.30;24.20;;;;;;;-0.37;65.15;98048.63;219041;1293;139187;-61
2021/12/28 16:52:12;;;;;;;45.50;24.50;;;;;;;-0.42;65.07;98048.24;218723;1295;139109;-58
2021/12/28 16:57:15;;;;;;;45.80;25.30;;;;;;;-0.43;65.28;98044.83;218915;1293;139241;-57
2021/12/28 17:02:18;;;;;;;47.10;25.30;;;;;;;-0.47;65.11;98036.77;218706;1292;139957;-59
2021/12/28 17:07:21;;;;;;;42.80;22.90;;;;;;;-0.47;65.23;98029.96;219037;1293;140511;-57
2021/12/28 17:12:24;;;;;;;46.00;25.50;;;;;;;-0.42;65.24;98021.62;218965;1293;139838;-60
2021/12/28 17:17:27;;;;;;;51.30;26.60;;;;;;;-0.39;65.20;98016.98;218729;1293;139743;-60
2021/12/28 17:22:30;;;;;;;87.70;55.10;;;;;;;-0.38;65.35;98021.98;219308;1292;140196;-61
2021/12/28 17:27:33;;;;;;;51.50;27.50;;;;;;;-0.13;66.10;98022.50;219102;1293;139595;-61
2021/12/28 17:32:37;;;;;;;49.50;25.90;;;;;;;0.05;65.43;98027.61;219719;1290;140010;-56
2021/12/28 17:37:40;;;;;;;46.90;24.70;;;;;;;-0.05;64.88;98030.25;218926;1293;139651;-59
2021/12/28 17:42:44;;;;;;;46.10;25.60;;;;;;;-0.17;64.85;98031.21;219339;1290;138869;-59
2021/12/28 17:47:48;;;;;;;46.60;25.50;;;;;;;-0.31;64.64;98023.13;218853;1290;139471;-60
2021/12/28 17:52:53;;;;;;;102.30;60.10;;;;;;;-0.36;65.05;98018.25;218902;1293;139330;-60
2021/12/28 17:57:57;;;;;;;54.90;31.80;;;;;;;-0.24;65.58;98016.61;219422;1293;141600;-60
2021/12/28 18:03:04;;;;;;;49.40;26.80;;;;;;;-0.10;65.29;98014.21;218818;1292;140064;-66
2021/12/28 18:08:08;;;;;;;48.10;25.90;;;;;;;-0.24;64.52;98007.90;219672;1293;138921;-60
2021/12/28 18:13:11;;;;;;;46.50;25.40;;;;;;;-0.42;64.37;98000.86;218853;1294;139309;-61
2021/12/28 18:18:19;;;;;;;50.00;26.10;;;;;;;-0.56;64.68;98001.85;219094;1292;139231;-58
2021/12/28 18:23:23;;;;;;;51.50;25.90;;;;;;;-0.64;64.68;98002.52;219114;1293;139162;-59
2021/12/28 18:28:26;;;;;;;48.00;26.70;;;;;;;-0.72;64.70;98012.17;219106;1293;139650;-59
2021/12/28 18:33:30;;;;;;;46.00;25.80;;;;;;;-0.77;64.92;97995.45;218988;1293;139020;-61
2021/12/28 18:38:34;;;;;;;49.90;27.30;;;;;;;-0.80;64.70;97992.38;218881;1291;139307;-59
2021/12/28 18:43:37;;;;;;;49.90;27.80;;;;;;;-0.84;64.82;97986.08;218869;1290;140221;-59
2021/12/28 18:48:40;;;;;;;51.90;28.20;;;;;;;-0.86;64.91;97976.23;219047;1293;142550;-59
2021/12/28 18:53:44;;;;;;;52.50;27.60;;;;;;;-0.87;64.91;97973.30;219013;1293;139272;-57
2021/12/28 18:58:50;;;;;;;49.70;27.40;;;;;;;-0.90;64.92;97970.27;219952;1290;139225;-59
2021/12/28 19:03:53;;;;;;;49.80;27.10;;;;;;;-0.93;64.97;97977.36;219142;1293;139952;-59
2021/12/28 19:08:56;;;;;;;53.30;27.40;;;;;;;-0.98;65.01;97989.69;219119;1291;139198;-59
2021/12/28 19:14:00;;;;;;;51.10;26.50;;;;;;;-0.94;64.99;97993.92;218901;1293;139689;-59
2021/12/28 19:19:03;;;;;;;52.60;27.20;;;;;;;-0.89;65.13;97979.12;219273;1293;139327;-60
2021/12/28 19:24:06;;;;;;;51.30;26.70;;;;;;;-0.82;65.25;97972.78;219130;1293;139175;-60
2021/12/28 19:29:09;;;;;;;59.00;28.90;;;;;;;-0.74;65.12;97968.00;218726;1293;139979;-62
2021/12/28 19:34:12;;;;;;;53.20;27.80;;;;;;;-0.74;64.94;97970.27;218634;1293;139806;-58
2021/12/28 19:39:16;;;;;;;54.90;27.80;;;;;;;-0.78;64.96;97963.77;218537;1293;139208;-58
2021/12/28 19:44:19;;;;;;;50.10;27.50;;;;;;;-0.82;64.89;97958.51;218973;1293;141366;-59
2021/12/28 19:49:23;;;;;;;51.40;27.80;;;;;;;-0.87;64.90;97951.05;219237;1293;139081;-59
2021/12/28 19:54:26;;;;;;;55.50;28.50;;;;;;;-0.93;64.85;97948.09;218603;1293;139714;-61
2021/12/28 19:59:30;;;;;;;48.10;26.90;;;;;;;-0.99;64.92;97940.83;219030;1293;139622;-62
2021/12/28 20:04:37;;;;;;;54.60;27.80;;;;;;;-1.02;65.03;97937.60;218460;1294;140071;-59
2021/12/28 20:09:41;;;;;;;54.20;28.10;;;;;;;-1.02;65.23;97938.29;219182;1293;138805;-59
2021/12/28 20:14:44;;;;;;;53.80;27.70;;;;;;;-1.03;65.00;97937.11;219334;1291;139195;-63
2021/12/28 20:19:47;;;;;;;51.70;27.00;;;;;;;-1.07;65.16;97939.85;219175;1293;139163;-61
2021/12/28 20:24:51;;;;;;;51.50;28.20;;;;;;;-1.09;65.13;97937.48;218805;1293;139882;-60
2021/12/28 20:29:53;;;;;;;51.80;28.10;;;;;;;-1.11;65.11;97938.61;219044;1290;139305;-62
2021/12/28 20:34:57;;;;;;;52.60;28.20;;;;;;;-1.14;65.08;97940.95;218728;1291;139788;-62
2021/12/28 20:40:00;;;;;;;56.10;29.20;;;;;;;-1.15;65.33;97926.73;219847;1293;138815;-54
2021/12/28 20:45:06;;;;;;;52.30;28.50;;;;;;;-1.15;65.28;97923.42;219261;1292;139685;-63
2021/12/28 20:50:09;;;;;;;;;;;;;;;-1.19;65.19;97903.52;218995;1294;138971;-59
2021/12/28 20:55:19;;;;;;;54.20;28.60;;;;;;;-1.19;65.34;97896.22;219347;1294;125981;-62
2021/12/28 21:00:27;;;;;;;65.30;28.90;;;;;;;-1.19;65.31;97897.44;219413;1291;139611;-62
2021/12/28 21:05:32;;;;;;;60.70;29.00;;;;;;;-1.21;65.35;97907.06;219308;1292;139797;-58
2021/12/28 21:10:39;;;;;;;60.30;30.30;;;;;;;-1.22;65.24;97906.42;219339;1293;139422;-64
2021/12/28 21:15:43;;;;;;;59.60;29.60;;;;;;;-1.20;65.26;97908.27;218641;1294;140270;-60
2021/12/28 21:20:46;;;;;;;56.80;29.30;;;;;;;-1.17;65.47;97908.52;219590;1293;139597;-61
2021/12/28 21:25:49;;;;;;;58.20;28.60;;;;;;;-1.11;65.47;97913.39;218913;1294;139520;-64
2021/12/28 21:30:53;;;;;;;58.60;30.00;;;;;;;-1.04;65.54;97904.44;219563;1291;142075;-63
2021/12/28 21:35:58;;;;;;;57.30;30.10;;;;;;;-0.98;65.59;97894.64;218892;1294;138907;-58
2021/12/28 21:41:01;;;;;;;;;;;;;;;-0.98;65.54;97878.79;218806;1294;139163;-60
2021/12/28 21:46:05;;;;;;;60.10;30.90;;;;;;;-1.00;65.49;97872.27;219015;1294;125281;-62
2021/12/28 21:51:08;;;;;;;63.30;31.40;;;;;;;-1.00;65.38;97863.93;218595;1294;139747;-63
2021/12/28 21:56:11;;;;;;;62.00;30.30;;;;;;;-1.02;65.28;97866.41;219656;1294;139649;-59
2021/12/28 22:01:15;;;;;;;56.50;28.70;;;;;;;-1.06;65.31;97876.66;219020;1294;140644;-59
2021/12/28 22:06:18;;;;;;;58.10;29.10;;;;;;;-1.09;65.30;97875.88;218636;1291;139893;-58
2021/12/28 22:11:25;;;;;;;57.30;29.40;;;;;;;-1.16;65.12;97865.69;218518;1294;139833;-61
2021/12/28 22:16:28;;;;;;;60.40;29.50;;;;;;;-1.20;65.42;97852.92;218934;1293;139698;-59
2021/12/28 22:21:31;;;;;;;62.10;31.60;;;;;;;-1.17;65.52;97844.82;218953;1294;139340;-59
2021/12/28 22:26:34;;;;;;;62.10;31.10;;;;;;;-1.13;65.64;97835.13;218949;1294;138814;-62
2021/12/28 22:31:38;;;;;;;61.40;31.80;;;;;;;-1.10;65.66;97823.17;218762;1294;139392;-58
2021/12/28 22:36:41;;;;;;;60.00;31.30;;;;;;;-1.08;65.56;97816.84;220139;1291;139545;-62
2021/12/28 22:41:44;;;;;;;62.70;31.80;;;;;;;-1.11;65.53;97808.95;218593;1293;139098;-62
2021/12/28 22:46:47;;;;;;;57.10;30.00;;;;;;;-1.13;65.57;97803.27;219114;1293;138939;-63
2021/12/28 22:51:51;;;;;;;62.70;30.00;;;;;;;-1.13;65.41;97796.48;219485;1291;139082;-61
2021/12/28 22:56:54;;;;;;;63.10;30.20;;;;;;;-1.14;65.55;97800.88;218959;1291;139229;-58